Time;durP1;ratioP1;P1;durP2;ratioP2;P2;SDS_P1;SDS_P2;PMS_P1;PMS_P2;Temp;Humidity;BMP_temperature;BMP_pressure;BME280_temperature;BME280_humidity;BME280_pressure;Samples;Min_cycle;Max_cycle;Signal;HPM_P1;HPM_P2
2023/02/27 00:00:30;;;;;;;49.00;14.07;;;-1.20;99.90;;;;;;4379618;28;658635;-68
2023/02/27 00:03:17;;;;;;;39.50;12.33;;;-1.20;99.90;;;;;;4410792;28;659398;-67
2023/02/27 00:06:06;;;;;;;38.27;12.30;;;-1.20;99.90;;;;;;4400757;28;658539;-69
2023/02/27 00:08:53;;;;;;;35.73;11.70;;;-1.20;99.90;;;;;;4396559;28;659594;-67
2023/02/27 00:11:42;;;;;;;36.93;10.90;;;-1.20;99.90;;;;;;4378257;28;658246;-68
2023/02/27 00:14:29;;;;;;;74.27;17.57;;;-1.20;99.90;;;;;;4397173;28;658952;-67
2023/02/27 00:17:16;;;;;;;30.15;8.95;;;-1.20;99.90;;;;;;4375153;28;658747;-67
2023/02/27 00:20:04;;;;;;;33.80;9.63;;;-1.30;99.90;;;;;;4389682;28;658491;-68
2023/02/27 00:22:51;;;;;;;30.70;9.38;;;-1.30;99.90;;;;;;4383961;28;658500;-67
2023/02/27 00:25:39;;;;;;;22.43;7.30;;;-1.30;99.90;;;;;;4398051;28;658108;-67
2023/02/27 00:28:27;;;;;;;41.42;10.38;;;-1.30;99.70;;;;;;4373544;28;657407;-67
2023/02/27 00:31:15;;;;;;;67.47;13.03;;;-1.30;82.20;;;;;;4406901;28;658878;-68
2023/02/27 00:34:02;;;;;;;25.57;8.07;;;-1.20;29.20;;;;;;4376181;28;660191;-67
2023/02/27 00:36:50;;;;;;;27.90;7.47;;;-1.20;1.00;;;;;;4392210;28;658469;-68
2023/02/27 00:39:37;;;;;;;33.97;7.90;;;-1.30;1.00;;;;;;4403395;28;657263;-66
2023/02/27 00:42:27;;;;;;;35.60;9.60;;;-1.30;1.00;;;;;;4387913;28;656899;-67
2023/02/27 00:45:15;;;;;;;29.60;6.47;;;-1.30;1.00;;;;;;4337943;28;656784;-66
2023/02/27 00:48:02;;;;;;;35.53;8.50;;;-1.30;1.00;;;;;;4386421;28;657707;-67
2023/02/27 00:50:50;;;;;;;13.40;4.97;;;-1.30;1.00;;;;;;4400204;28;656663;-68
2023/02/27 00:53:37;;;;;;;44.10;10.27;;;-1.30;1.00;;;;;;4412080;28;657257;-66
2023/02/27 00:56:25;;;;;;;25.50;6.87;;;-1.30;1.00;;;;;;4396755;28;657706;-69
2023/02/27 00:59:12;;;;;;;32.93;7.93;;;-1.30;1.00;;;;;;4405949;28;656434;-66
2023/02/27 01:02:02;;;;;;;27.53;7.40;;;-1.40;1.00;;;;;;4414612;28;656765;-67
2023/02/27 01:04:49;;;;;;;21.93;6.03;;;-1.40;1.00;;;;;;4412764;28;657577;-67
2023/02/27 01:07:37;;;;;;;23.93;6.13;;;-1.40;1.00;;;;;;4393195;28;656950;-67
2023/02/27 01:10:24;;;;;;;43.60;9.30;;;-1.40;1.00;;;;;;4404733;28;656852;-69
2023/02/27 01:13:11;;;;;;;53.67;9.53;;;-1.40;1.00;;;;;;4388001;28;656877;-67
2023/02/27 01:15:58;;;;;;;51.47;9.87;;;-1.50;1.00;;;;;;4402985;28;657065;-68
2023/02/27 01:18:47;;;;;;;54.57;9.00;;;-1.40;1.00;;;;;;4382547;28;657188;-67
2023/02/27 01:21:34;;;;;;;26.70;5.90;;;-1.40;1.00;;;;;;4395090;28;656324;-67
2023/02/27 01:24:22;;;;;;;11.77;3.67;;;-1.50;1.00;;;;;;4375068;28;657017;-67
2023/02/27 01:27:09;;;;;;;21.30;4.97;;;-1.40;1.00;;;;;;4401477;28;656875;-66
2023/02/27 01:29:56;;;;;;;24.27;4.97;;;-1.40;1.00;;;;;;4373297;28;656497;-66
2023/02/27 01:32:44;;;;;;;37.53;8.03;;;-1.40;1.00;;;;;;4405876;28;657143;-66
2023/02/27 01:35:33;;;;;;;29.20;6.83;;;-1.40;1.00;;;;;;4393847;28;656271;-67
2023/02/27 01:38:20;;;;;;;21.80;4.77;;;-1.40;1.00;;;;;;4397125;28;656823;-68
2023/02/27 01:41:07;;;;;;;12.87;3.40;;;-1.40;1.00;;;;;;4408658;28;656878;-67
2023/02/27 01:43:57;;;;;;;18.67;5.37;;;-1.40;1.00;;;;;;4412523;28;656358;-67
2023/02/27 01:46:44;;;;;;;8.88;3.35;;;-1.40;1.00;;;;;;4411403;28;656832;-66
2023/02/27 01:49:33;;;;;;;12.32;2.83;;;-1.50;1.00;;;;;;4393884;28;655594;-67
2023/02/27 01:52:22;;;;;;;6.50;2.78;;;-1.50;1.00;;;;;;4378131;28;657800;-69
2023/02/27 01:55:11;;;;;;;12.57;3.03;;;-1.50;1.00;;;;;;4408024;28;655423;-67
2023/02/27 01:57:59;;;;;;;11.77;2.73;;;-1.50;1.00;;;;;;4378761;28;657492;-67
2023/02/27 02:00:46;;;;;;;8.37;2.53;;;-1.40;1.00;;;;;;4381054;28;656289;-67
2023/02/27 02:03:35;;;;;;;6.23;2.33;;;-1.50;1.00;;;;;;4406237;28;655411;-67
2023/02/27 02:06:23;;;;;;;7.47;2.37;;;-1.40;1.00;;;;;;4381647;28;655688;-67
2023/02/27 02:09:12;;;;;;;4.33;2.00;;;-1.50;1.00;;;;;;4384895;28;655790;-67
2023/02/27 02:11:59;;;;;;;8.52;2.90;;;-1.50;1.00;;;;;;4410909;28;655848;-68
2023/02/27 02:14:46;;;;;;;8.60;3.00;;;-1.50;1.00;;;;;;4385395;28;655624;-67
2023/02/27 02:17:39;;;;;;;8.83;2.67;;;-1.50;1.00;;;;;;4412368;28;655906;-67
2023/02/27 02:20:52;;;;;;;10.97;2.97;;;-1.50;1.00;;;;;;4357880;28;656282;-67
2023/02/27 02:24:22;;;;;;;9.23;3.03;;;-1.50;1.00;;;;;;4374237;28;656854;-67
2023/02/27 02:27:20;;;;;;;5.93;2.00;;;-1.50;1.00;;;;;;4394789;28;655202;-68
2023/02/27 02:30:43;;;;;;;5.20;1.90;;;-1.50;1.00;;;;;;4366326;28;656975;-67
2023/02/27 02:34:09;;;;;;;4.17;1.70;;;-1.50;1.00;;;;;;4359372;28;655277;-69
2023/02/27 02:37:30;;;;;;;4.10;1.90;;;-1.50;1.00;;;;;;4353085;28;655669;-67
2023/02/27 02:40:24;;;;;;;6.88;1.90;;;-1.50;1.00;;;;;;4375052;28;655557;-67
2023/02/27 02:43:13;;;;;;;8.17;2.00;;;-1.50;1.00;;;;;;4378414;28;655996;-69
2023/02/27 02:46:01;;;;;;;7.57;1.93;;;-1.40;1.00;;;;;;4292386;28;655400;-69
2023/02/27 02:48:51;;;;;;;4.80;2.07;;;-1.40;1.00;;;;;;4268349;28;656495;-69
2023/02/27 02:51:41;;;;;;;6.23;2.70;;;-1.30;1.00;;;;;;4320251;28;655759;-67
2023/02/27 02:54:31;;;;;;;6.87;1.77;;;-1.30;1.00;;;;;;4375627;28;657569;-67
2023/02/27 02:57:21;;;;;;;3.77;1.87;;;-1.30;1.00;;;;;;4387049;28;655692;-67
2023/02/27 03:00:10;;;;;;;4.70;1.73;;;-1.30;1.00;;;;;;4383087;28;655790;-66
2023/02/27 03:03:00;;;;;;;4.37;1.80;;;-1.30;1.00;;;;;;4383245;28;655958;-67
2023/02/27 03:05:49;;;;;;;5.57;1.97;;;-1.30;1.00;;;;;;4382197;28;656303;-66
2023/02/27 03:08:37;;;;;;;7.43;1.77;;;-1.30;1.00;;;;;;4386527;28;656118;-67
2023/02/27 03:11:26;;;;;;;7.17;1.77;;;-1.40;1.00;;;;;;4414160;28;655188;-67
2023/02/27 03:14:16;;;;;;;4.30;1.93;;;-1.40;1.00;;;;;;4372763;28;655591;-67
2023/02/27 03:17:05;;;;;;;5.53;2.10;;;-1.40;1.00;;;;;;4388460;28;655785;-67
2023/02/27 03:19:54;;;;;;;12.60;2.80;;;-1.40;1.00;;;;;;4388112;28;656773;-67
2023/02/27 03:22:43;;;;;;;8.10;2.40;;;-1.40;1.00;;;;;;4386887;28;657362;-67
2023/02/27 03:25:31;;;;;;;7.23;1.97;;;-1.40;1.00;;;;;;4376940;28;655517;-66
2023/02/27 03:28:20;;;;;;;8.03;2.33;;;-1.40;1.00;;;;;;4407263;28;655754;-67
2023/02/27 03:31:11;;;;;;;6.33;2.23;;;-1.30;1.00;;;;;;4378920;28;656424;-68
2023/02/27 03:34:07;;;;;;;6.53;2.00;;;-1.40;1.00;;;;;;4376367;28;656201;-67
2023/02/27 03:36:58;;;;;;;5.73;2.13;;;-1.30;1.00;;;;;;4378185;28;655807;-67
2023/02/27 03:39:46;;;;;;;5.23;2.27;;;-1.30;1.00;;;;;;4359954;28;656062;-67
2023/02/27 03:42:35;;;;;;;8.70;2.33;;;-1.30;1.00;;;;;;4409599;28;655125;-67
2023/02/27 03:45:26;;;;;;;9.23;2.40;;;-1.30;1.00;;;;;;4389325;28;657100;-67
2023/02/27 03:48:15;;;;;;;5.17;2.10;;;-1.30;1.00;;;;;;4380449;28;655463;-67
2023/02/27 03:51:02;;;;;;;14.03;2.80;;;-1.30;1.00;;;;;;4384958;28;656308;-66
2023/02/27 03:53:51;;;;;;;8.00;2.27;;;-1.30;1.00;;;;;;4406570;28;656952;-67
2023/02/27 03:56:40;;;;;;;7.43;2.80;;;-1.40;1.00;;;;;;4385945;28;655741;-67
2023/02/27 03:59:28;;;;;;;10.57;3.30;;;-1.30;1.00;;;;;;4386658;28;657523;-68
2023/02/27 04:02:15;;;;;;;7.87;3.00;;;-1.30;1.00;;;;;;4386602;28;656316;-68
2023/02/27 04:05:04;;;;;;;10.93;3.90;;;-1.30;1.00;;;;;;4404780;28;655857;-67
2023/02/27 04:07:59;;;;;;;10.07;3.38;;;-1.30;1.00;;;;;;4379638;28;656839;-67
2023/02/27 04:11:06;;;;;;;6.05;2.45;;;-1.30;1.00;;;;;;4385051;28;657083;-67
2023/02/27 04:14:03;;;;;;;9.27;3.10;;;-1.30;1.00;;;;;;4378422;28;656439;-67
2023/02/27 04:16:57;;;;;;;8.67;2.50;;;-1.30;1.00;;;;;;4386775;28;655913;-69
2023/02/27 04:20:13;;;;;;;11.37;3.17;;;-1.30;1.00;;;;;;4389825;28;656396;-67
2023/02/27 04:23:03;;;;;;;10.03;2.90;;;-1.30;1.00;;;;;;4362469;28;657300;-68
2023/02/27 04:25:54;;;;;;;7.63;2.90;;;-1.40;1.00;;;;;;4378680;28;656498;-68
2023/02/27 04:28:44;;;;;;;7.33;2.70;;;-1.40;1.00;;;;;;4377365;28;656278;-68
2023/02/27 04:31:32;;;;;;;7.53;3.30;;;-1.30;1.00;;;;;;4387366;28;655824;-68
2023/02/27 04:34:21;;;;;;;15.33;3.73;;;-1.30;1.00;;;;;;4406957;28;656337;-66
2023/02/27 04:37:10;;;;;;;8.33;3.27;;;-1.30;1.00;;;;;;4390279;28;657180;-67
2023/02/27 04:40:00;;;;;;;8.17;3.30;;;-1.30;1.00;;;;;;4380764;28;655927;-67
2023/02/27 04:42:49;;;;;;;8.83;3.20;;;-1.30;1.00;;;;;;4379934;28;655978;-67
2023/02/27 04:45:40;;;;;;;7.43;3.00;;;-1.30;1.00;;;;;;4386681;28;656195;-67
2023/02/27 04:48:29;;;;;;;14.73;5.43;;;-1.30;1.00;;;;;;4385956;28;656059;-67
2023/02/27 04:51:18;;;;;;;10.13;3.63;;;-1.30;1.00;;;;;;4377344;28;656435;-68
2023/02/27 04:54:08;;;;;;;10.57;4.10;;;-1.30;1.00;;;;;;4402806;28;656683;-68
2023/02/27 04:56:58;;;;;;;8.40;3.53;;;-1.30;1.00;;;;;;4373964;28;656930;-68
2023/02/27 04:59:47;;;;;;;12.50;3.50;;;-1.30;1.00;;;;;;4381885;28;655615;-68
2023/02/27 05:02:36;;;;;;;9.03;3.50;;;-1.30;1.00;;;;;;4408612;28;656909;-68
2023/02/27 05:05:25;;;;;;;10.50;3.47;;;-1.30;1.00;;;;;;4379271;28;656628;-67
2023/02/27 05:08:16;;;;;;;14.03;4.03;;;-1.30;1.00;;;;;;4378301;28;657742;-67
2023/02/27 05:11:08;;;;;;;10.37;3.97;;;-1.30;1.00;;;;;;4369569;28;657976;-67
2023/02/27 05:13:58;;;;;;;10.30;4.10;;;-1.30;1.00;;;;;;4392605;28;656690;-68
2023/02/27 05:16:47;;;;;;;10.85;4.45;;;-1.30;1.00;;;;;;4391643;28;656688;-69
2023/02/27 05:19:34;;;;;;;12.13;4.80;;;-1.30;1.00;;;;;;4399374;28;657443;-66
2023/02/27 05:22:24;;;;;;;10.20;4.30;;;-1.30;1.00;;;;;;4390318;28;656934;-66
2023/02/27 05:25:13;;;;;;;12.27;4.10;;;-1.20;1.00;;;;;;4381900;28;656525;-67
2023/02/27 05:28:02;;;;;;;13.23;4.27;;;-1.20;1.00;;;;;;4378960;28;657005;-69
2023/02/27 05:30:53;;;;;;;10.07;3.90;;;-1.20;1.00;;;;;;4399779;28;656461;-67
2023/02/27 05:33:43;;;;;;;10.27;3.90;;;-1.20;1.00;;;;;;4385718;28;657101;-68
2023/02/27 05:36:32;;;;;;;10.63;4.53;;;-1.20;1.00;;;;;;4380523;28;656647;-67
2023/02/27 05:39:20;;;;;;;14.17;5.10;;;-1.20;1.00;;;;;;4398540;28;656770;-67
2023/02/27 05:42:09;;;;;;;10.60;4.30;;;-1.20;1.00;;;;;;4368626;28;658489;-67
2023/02/27 05:44:57;;;;;;;11.67;4.17;;;-1.20;1.00;;;;;;4381256;28;656318;-67
2023/02/27 05:47:47;;;;;;;9.73;4.07;;;-1.20;1.00;;;;;;4397581;28;658140;-66
2023/02/27 05:50:35;;;;;;;9.57;4.10;;;-1.20;1.00;;;;;;4379872;28;655461;-67
2023/02/27 05:53:23;;;;;;;13.77;5.17;;;-1.20;1.00;;;;;;4378009;28;656127;-67
2023/02/27 05:56:10;;;;;;;10.98;4.55;;;-1.20;1.00;;;;;;4380387;28;656398;-68
2023/02/27 05:59:00;;;;;;;11.80;5.20;;;-1.10;1.00;;;;;;4402415;28;656675;-66
2023/02/27 06:01:47;;;;;;;13.07;4.70;;;-1.10;1.00;;;;;;4379017;28;657922;-67
2023/02/27 06:04:36;;;;;;;15.67;5.57;;;-1.10;1.00;;;;;;4403494;28;657088;-67
2023/02/27 06:07:23;;;;;;;10.83;4.70;;;-1.10;1.00;;;;;;4389790;28;657222;-67
2023/02/27 06:10:12;;;;;;;11.27;4.97;;;-1.10;1.00;;;;;;4384955;28;656687;-68
2023/02/27 06:12:59;;;;;;;15.37;5.50;;;-1.10;1.00;;;;;;4407294;28;656664;-66
2023/02/27 06:15:46;;;;;;;19.80;6.27;;;-1.10;1.00;;;;;;4382589;28;656639;-67
2023/02/27 06:18:33;;;;;;;59.83;11.83;;;-1.00;1.00;;;;;;4401791;28;657958;-66
2023/02/27 06:21:22;;;;;;;12.27;5.10;;;-1.00;1.00;;;;;;4389249;28;658582;-67
2023/02/27 06:24:09;;;;;;;19.70;5.43;;;-1.00;1.00;;;;;;4394687;28;657362;-66
2023/02/27 06:26:57;;;;;;;52.97;10.47;;;-1.00;1.00;;;;;;4373919;28;656795;-66
2023/02/27 06:29:44;;;;;;;31.50;7.00;;;-0.90;1.00;;;;;;4401263;28;657850;-67
2023/02/27 06:32:31;;;;;;;135.47;26.43;;;-0.90;1.00;;;;;;4387720;28;657019;-67
2023/02/27 06:35:18;;;;;;;18.07;5.60;;;-0.90;1.00;;;;;;4401836;28;659730;-68
2023/02/27 06:38:07;;;;;;;153.47;26.07;;;-0.90;1.00;;;;;;4381325;28;656986;-67
2023/02/27 06:40:54;;;;;;;83.72;19.42;;;-0.80;1.00;;;;;;4392061;28;659351;-67
2023/02/27 06:43:42;;;;;;;18.80;6.33;;;-0.80;1.00;;;;;;4347943;28;657547;-67
2023/02/27 06:46:29;;;;;;;15.57;5.70;;;-0.70;1.00;;;;;;4330009;28;656611;-69
2023/02/27 06:49:17;;;;;;;13.23;5.40;;;-0.70;1.00;;;;;;4324886;28;656689;-69
2023/02/27 06:52:05;;;;;;;11.10;4.70;;;-0.70;1.00;;;;;;4309021;28;656796;-67
2023/02/27 06:54:53;;;;;;;10.97;3.93;;;-0.60;1.00;;;;;;4379197;28;657124;-68
2023/02/27 06:57:40;;;;;;;13.33;6.00;;;-0.60;1.00;;;;;;4378991;28;656507;-68
2023/02/27 07:00:28;;;;;;;13.17;4.83;;;-0.50;1.00;;;;;;4401841;28;657917;-67
2023/02/27 07:03:15;;;;;;;23.90;8.15;;;-0.40;1.00;;;;;;4396150;28;656592;-69
2023/02/27 07:06:02;;;;;;;39.50;16.80;;;-0.40;1.00;;;;;;4410640;28;656931;-67
2023/02/27 07:08:50;;;;;;;18.50;6.83;;;-0.30;1.00;;;;;;4401172;28;657853;-71
2023/02/27 07:11:39;;;;;;;6.33;3.43;;;-0.30;1.00;;;;;;4408114;28;657070;-71
2023/02/27 07:14:26;;;;;;;15.33;6.50;;;-0.30;1.00;;;;;;4400305;28;656185;-71
2023/02/27 07:17:13;;;;;;;29.53;15.00;;;-0.20;1.00;;;;;;4405939;28;657466;-71
2023/02/27 07:20:00;;;;;;;10.87;4.10;;;-0.10;1.00;;;;;;4374106;28;657828;-71
2023/02/27 07:22:48;;;;;;;9.47;3.70;;;0.00;1.00;;;;;;4401109;28;657755;-71
2023/02/27 07:25:35;;;;;;;121.13;30.00;;;0.10;1.00;;;;;;4395825;28;654661;-71
2023/02/27 07:28:24;;;;;;;12.13;4.73;;;0.20;1.00;;;;;;4413805;28;658043;-71
2023/02/27 07:31:12;;;;;;;10.33;3.90;;;0.30;1.00;;;;;;4382896;28;655767;-70
2023/02/27 07:34:00;;;;;;;6.63;3.00;;;0.30;1.00;;;;;;4396129;28;655944;-70
2023/02/27 07:36:47;;;;;;;7.77;3.20;;;0.50;1.00;;;;;;4395951;28;655097;-70
2023/02/27 07:39:35;;;;;;;4.97;2.33;;;0.60;1.00;;;;;;4412817;28;654251;-70
2023/02/27 07:42:22;;;;;;;8.37;3.17;;;0.70;1.00;;;;;;4381542;28;654379;-71
2023/02/27 07:45:11;;;;;;;5.07;1.93;;;0.80;1.00;;;;;;4401265;28;655991;-70
2023/02/27 07:47:58;;;;;;;4.95;2.22;;;0.80;1.00;;;;;;4375872;28;655035;-71
2023/02/27 07:50:46;;;;;;;6.73;3.13;;;0.80;1.00;;;;;;4374609;28;654931;-70
2023/02/27 07:53:33;;;;;;;7.00;3.07;;;0.80;1.00;;;;;;4406362;28;654437;-70
2023/02/27 07:56:20;;;;;;;10.82;3.90;;;0.80;1.00;;;;;;4385987;28;654650;-70
2023/02/27 07:59:08;;;;;;;7.40;2.53;;;0.90;1.00;;;;;;4417740;28;656305;-70
2023/02/27 08:01:57;;;;;;;6.23;2.63;;;0.90;1.00;;;;;;4393802;28;654854;-70
2023/02/27 08:04:44;;;;;;;7.63;3.33;;;0.90;1.00;;;;;;4389539;28;655175;-70
2023/02/27 08:07:31;;;;;;;7.07;2.50;;;0.90;1.00;;;;;;4377754;28;654481;-70
2023/02/27 08:10:19;;;;;;;8.70;3.93;;;1.00;1.00;;;;;;4412608;28;655317;-70
2023/02/27 08:13:06;;;;;;;9.97;3.67;;;1.00;1.00;;;;;;4378818;28;654854;-69
2023/02/27 08:15:53;;;;;;;8.03;2.90;;;1.10;1.00;;;;;;4413333;28;654847;-69
2023/02/27 08:18:42;;;;;;;4.45;2.63;;;1.10;1.00;;;;;;4393624;28;654675;-70
2023/02/27 08:21:29;;;;;;;4.33;2.43;;;1.10;1.00;;;;;;4409193;28;654476;-70
2023/02/27 08:24:16;;;;;;;5.63;2.73;;;1.10;1.00;;;;;;4374263;28;654448;-69
2023/02/27 08:27:03;;;;;;;7.40;2.73;;;1.20;1.00;;;;;;4395689;28;655873;-70
2023/02/27 08:29:51;;;;;;;7.07;2.73;;;1.30;1.00;;;;;;4386271;28;654723;-69
2023/02/27 08:32:38;;;;;;;6.47;2.50;;;1.20;1.00;;;;;;4406603;28;655913;-69
2023/02/27 08:35:27;;;;;;;7.60;2.77;;;1.20;1.00;;;;;;4394933;28;654517;-69
2023/02/27 08:38:14;;;;;;;12.53;3.17;;;1.20;1.00;;;;;;4408619;28;654198;-69
2023/02/27 08:41:01;;;;;;;5.57;2.60;;;1.30;1.00;;;;;;4389591;28;655747;-70
2023/02/27 08:43:48;;;;;;;6.07;2.40;;;1.40;1.00;;;;;;4411472;28;655327;-70
2023/02/27 08:46:36;;;;;;;8.93;2.60;;;1.30;1.00;;;;;;4393123;28;655435;-70
2023/02/27 08:49:24;;;;;;;7.43;3.03;;;1.50;1.00;;;;;;4407844;28;655331;-69
2023/02/27 08:52:12;;;;;;;6.87;2.70;;;1.50;1.00;;;;;;4375955;28;654341;-69
2023/02/27 08:55:00;;;;;;;5.70;2.03;;;1.70;1.00;;;;;;4405940;28;654364;-70
2023/02/27 08:57:47;;;;;;;3.77;1.70;;;1.90;1.00;;;;;;4409621;28;654460;-70
2023/02/27 09:00:35;;;;;;;6.67;1.83;;;2.00;1.00;;;;;;4403642;28;654555;-70
2023/02/27 09:03:27;;;;;;;3.27;1.60;;;2.20;1.00;;;;;;4411203;28;655566;-69
2023/02/27 09:06:14;;;;;;;5.73;1.87;;;2.10;1.00;;;;;;4383487;28;654765;-70
2023/02/27 09:09:03;;;;;;;4.30;2.17;;;2.20;1.00;;;;;;4394788;28;654699;-70
2023/02/27 09:11:50;;;;;;;3.90;1.60;;;2.10;1.00;;;;;;4385833;28;655023;-69
2023/02/27 09:14:38;;;;;;;5.20;2.10;;;2.00;1.00;;;;;;4423692;28;656912;-69
2023/02/27 09:17:26;;;;;;;4.57;2.50;;;1.80;1.00;;;;;;4393512;28;654471;-70
2023/02/27 09:20:14;;;;;;;7.23;2.90;;;1.80;1.00;;;;;;4413503;28;654416;-69
2023/02/27 09:23:01;;;;;;;61.17;10.13;;;1.60;1.00;;;;;;4376613;28;654368;-69
2023/02/27 09:25:50;;;;;;;31.13;6.77;;;1.60;1.00;;;;;;4406458;28;657634;-69
2023/02/27 09:28:40;;;;;;;18.15;4.80;;;1.50;1.00;;;;;;4381336;28;657333;-69
2023/02/27 09:31:28;;;;;;;23.93;4.90;;;1.40;1.00;;;;;;4392181;28;655282;-69
2023/02/27 09:34:15;;;;;;;85.47;14.40;;;1.30;1.00;;;;;;4386417;28;655844;-70
2023/02/27 09:37:02;;;;;;;84.97;15.70;;;1.20;1.00;;;;;;4410905;28;657600;-70
2023/02/27 09:39:50;;;;;;;94.83;18.50;;;1.20;1.00;;;;;;4390771;28;656834;-69
2023/02/27 09:42:44;;;;;;;80.10;22.50;;;1.10;1.00;;;;;;4404773;28;658193;-69
2023/02/27 09:45:35;;;;;;;20.80;7.77;;;1.10;1.00;;;;;;4381069;28;656570;-69
2023/02/27 09:48:29;;;;;;;18.00;6.80;;;1.00;1.00;;;;;;4387908;28;656847;-69
2023/02/27 09:51:16;;;;;;;16.87;6.43;;;1.00;1.00;;;;;;4396787;28;655800;-70
2023/02/27 09:54:03;;;;;;;10.57;4.43;;;1.00;1.00;;;;;;4413628;28;655736;-70
2023/02/27 09:56:52;;;;;;;15.83;5.87;;;0.90;1.00;;;;;;4385290;28;655281;-70
2023/02/27 09:59:43;;;;;;;9.57;4.65;;;0.90;1.00;;;;;;4417152;28;654627;-70
2023/02/27 10:02:37;;;;;;;13.30;4.90;;;0.80;1.00;;;;;;4381804;28;654543;-70
2023/02/27 10:05:30;;;;;;;17.80;7.13;;;0.80;1.00;;;;;;4390748;28;655249;-72
2023/02/27 10:08:21;;;;;;;22.93;7.57;;;0.60;1.00;;;;;;4393982;28;656147;-70
2023/02/27 10:11:10;;;;;;;12.37;4.50;;;0.40;1.00;;;;;;4393301;28;656107;-71
2023/02/27 10:13:59;;;;;;;9.02;4.03;;;0.40;1.00;;;;;;4394391;28;656858;-71
2023/02/27 10:16:48;;;;;;;15.03;5.83;;;0.30;1.00;;;;;;4396061;28;654597;-70
2023/02/27 10:19:36;;;;;;;8.17;4.33;;;0.30;1.00;;;;;;4400585;28;656098;-70
2023/02/27 10:22:26;;;;;;;23.47;8.00;;;0.20;1.00;;;;;;4416902;28;655113;-70
2023/02/27 10:25:15;;;;;;;18.67;7.27;;;0.20;1.00;;;;;;4386402;28;656619;-70
2023/02/27 10:28:12;;;;;;;25.67;9.53;;;0.20;1.00;;;;;;4381691;28;656587;-70
2023/02/27 10:31:00;;;;;;;46.67;15.73;;;0.40;1.00;;;;;;4388832;28;655444;-71
2023/02/27 10:33:49;;;;;;;23.10;9.13;;;0.50;1.00;;;;;;4401303;28;657552;-70
2023/02/27 10:36:36;;;;;;;16.73;7.23;;;0.60;1.00;;;;;;4389772;28;655339;-70
2023/02/27 10:39:24;;;;;;;14.70;6.10;;;0.70;1.00;;;;;;4414513;28;655864;-70
2023/02/27 10:42:11;;;;;;;9.93;3.90;;;0.70;1.00;;;;;;4390285;28;655503;-69
2023/02/27 10:44:59;;;;;;;15.30;6.00;;;0.80;1.00;;;;;;4414370;28;654682;-71
2023/02/27 10:47:46;;;;;;;22.67;6.00;;;0.90;1.00;;;;;;4402133;28;655588;-69
2023/02/27 10:50:36;;;;;;;14.90;4.80;;;1.00;1.00;;;;;;4314288;28;656111;-69
2023/02/27 10:53:24;;;;;;;15.40;4.90;;;1.20;1.00;;;;;;4225459;28;656502;-70
2023/02/27 10:56:15;;;;;;;11.93;4.40;;;1.30;1.00;;;;;;4300916;28;655488;-71
2023/02/27 10:59:03;;;;;;;41.83;13.40;;;1.30;1.00;;;;;;4394352;28;655244;-70
2023/02/27 11:01:52;;;;;;;22.93;9.93;;;1.40;1.00;;;;;;4391284;28;656968;-70
2023/02/27 11:04:39;;;;;;;19.77;8.17;;;1.60;1.00;;;;;;4338781;28;655014;-70
2023/02/27 11:07:31;;;;;;;29.50;10.57;;;1.70;1.00;;;;;;4384843;28;655897;-71
2023/02/27 11:10:19;;;;;;;20.37;8.17;;;1.80;1.00;;;;;;4385085;28;657392;-72
2023/02/27 11:13:20;;;;;;;23.87;10.70;;;1.90;1.00;;;;;;4390971;28;656162;-70
2023/02/27 11:16:10;;;;;;;30.50;12.93;;;1.90;1.00;;;;;;4390401;28;656665;-70
2023/02/27 11:18:57;;;;;;;22.13;8.57;;;2.00;1.00;;;;;;4382636;28;658301;-71
2023/02/27 11:21:49;;;;;;;6.13;3.23;;;2.00;1.00;;;;;;4406785;28;654992;-70
2023/02/27 11:24:38;;;;;;;14.65;6.20;;;2.10;1.00;;;;;;4363142;28;655264;-70
2023/02/27 11:27:27;;;;;;;8.83;4.30;;;2.20;1.00;;;;;;4403723;28;655164;-70
2023/02/27 11:30:25;;;;;;;11.00;4.70;;;2.40;1.00;;;;;;4415397;28;655855;-71
2023/02/27 11:33:18;;;;;;;5.23;2.40;;;2.50;1.00;;;;;;4360107;28;656597;-71
2023/02/27 11:36:06;;;;;;;8.53;3.50;;;2.00;1.00;;;;;;4386764;28;654894;-69
2023/02/27 11:38:53;;;;;;;3.50;1.60;;;2.00;1.00;;;;;;4416781;28;655103;-70
2023/02/27 11:41:43;;;;;;;3.43;1.60;;;1.90;1.00;;;;;;4391934;28;654564;-71
2023/02/27 11:44:30;;;;;;;6.00;2.00;;;1.80;1.00;;;;;;4376833;28;654801;-70
2023/02/27 11:47:21;;;;;;;4.97;1.90;;;1.70;99.90;;;;;;4275124;28;655784;-69
2023/02/27 11:50:30;;;;;;;3.83;1.60;;;1.50;99.90;;;;;;4325754;28;655784;-71
2023/02/27 11:53:39;;;;;;;31.50;9.82;;;1.50;99.90;;;;;;4364967;28;656289;-70
2023/02/27 11:56:28;;;;;;;6.70;2.97;;;1.60;1.00;;;;;;4386580;28;656668;-70
2023/02/27 11:59:25;;;;;;;6.70;2.67;;;1.60;99.90;;;;;;4392415;28;654661;-70
2023/02/27 12:02:17;;;;;;;4.23;1.73;;;1.60;99.90;;;;;;4358853;28;657248;-71
2023/02/27 12:05:09;;;;;;;3.77;1.87;;;1.70;99.90;;;;;;4391989;28;655518;-70
2023/02/27 12:07:59;;;;;;;2.40;1.57;;;1.80;99.90;;;;;;4369693;28;656428;-72
2023/02/27 12:10:48;;;;;;;3.50;1.73;;;1.70;99.90;;;;;;4389351;28;655458;-70
2023/02/27 12:13:36;;;;;;;3.95;1.75;;;1.90;99.90;;;;;;4391469;28;655666;-70
2023/02/27 12:16:29;;;;;;;4.13;1.60;;;2.00;99.90;;;;;;4414029;28;655636;-70
2023/02/27 12:19:18;;;;;;;7.95;2.00;;;2.10;99.90;;;;;;4392619;28;655731;-70
2023/02/27 12:22:06;;;;;;;4.50;1.67;;;2.00;99.90;;;;;;4389298;28;655633;-70
2023/02/27 12:24:54;;;;;;;3.23;1.70;;;2.00;99.90;;;;;;4406188;28;656910;-70
2023/02/27 12:27:44;;;;;;;5.53;1.87;;;2.10;99.90;;;;;;4398993;28;655447;-70
2023/02/27 12:30:33;;;;;;;4.47;1.77;;;2.00;99.90;;;;;;4395478;28;655727;-70
2023/02/27 12:33:28;;;;;;;4.33;1.90;;;1.90;99.90;;;;;;4398900;28;655674;-69
2023/02/27 12:36:15;;;;;;;3.03;1.30;;;2.00;99.90;;;;;;4377718;28;655050;-69
2023/02/27 12:39:05;;;;;;;4.20;1.90;;;1.90;99.90;;;;;;4429548;28;656629;-71
2023/02/27 12:42:05;;;;;;;4.70;2.00;;;1.90;99.90;;;;;;4398998;28;656472;-70
2023/02/27 12:45:04;;;;;;;7.13;3.30;;;1.90;99.90;;;;;;4376657;28;655984;-71
2023/02/27 12:47:56;;;;;;;3.47;1.73;;;1.90;99.90;;;;;;4369401;28;655865;-70
2023/02/27 12:50:56;;;;;;;4.47;2.50;;;1.80;99.90;;;;;;4386451;28;655973;-71
2023/02/27 12:53:56;;;;;;;4.10;1.77;;;1.80;99.90;;;;;;4386790;28;656044;-70
2023/02/27 12:56:49;;;;;;;5.63;1.80;;;1.60;99.90;;;;;;4389455;28;655706;-71
2023/02/27 12:59:44;;;;;;;5.72;2.10;;;1.70;99.90;;;;;;4374339;28;656151;-70
2023/02/27 13:02:54;;;;;;;6.77;2.33;;;1.70;99.90;;;;;;4397407;28;655763;-71
2023/02/27 13:05:45;;;;;;;5.30;2.07;;;1.60;99.90;;;;;;4361076;28;655889;-71
2023/02/27 13:09:01;;;;;;;7.50;2.83;;;1.70;99.90;;;;;;4387820;28;655875;-71
2023/02/27 13:11:54;;;;;;;6.33;3.43;;;2.10;99.90;;;;;;4385764;28;656106;-71
2023/02/27 13:14:46;;;;;;;4.33;2.33;;;2.30;99.90;;;;;;4392127;28;655701;-71
2023/02/27 13:17:36;;;;;;;6.47;2.70;;;2.30;99.90;;;;;;4392725;28;656208;-72
2023/02/27 13:20:29;;;;;;;6.07;2.03;;;2.40;99.90;;;;;;4385601;28;656651;-71
2023/02/27 13:23:19;;;;;;;4.77;2.10;;;2.50;99.90;;;;;;4248014;28;656228;-69
2023/02/27 13:26:14;;;;;;;3.63;2.00;;;2.70;99.90;;;;;;4234932;28;655230;-70
2023/02/27 13:29:01;;;;;;;5.13;2.07;;;2.70;99.90;;;;;;4330718;28;656652;-73
2023/02/27 13:31:52;;;;;;;8.67;2.23;;;2.90;99.90;;;;;;4411070;28;655368;-69
2023/02/27 13:34:41;;;;;;;5.53;1.80;;;3.10;99.90;;;;;;4388407;28;655346;-72
2023/02/27 13:37:50;;;;;;;3.17;1.93;;;3.20;99.90;;;;;;4389392;28;656048;-73
2023/02/27 13:40:38;;;;;;;5.10;2.07;;;2.90;99.90;;;;;;4371582;28;655823;-75
2023/02/27 13:43:33;;;;;;;4.27;1.83;;;3.00;99.90;;;;;;4399458;28;655832;-71
2023/02/27 13:46:21;;;;;;;4.83;2.10;;;3.20;99.90;;;;;;4375520;28;656503;-71
2023/02/27 13:49:25;;;;;;;3.50;2.03;;;3.50;99.90;;;;;;4418912;28;656751;-73
2023/02/27 13:52:12;;;;;;;3.70;2.20;;;3.70;99.90;;;;;;4403404;28;656599;-72
2023/02/27 13:54:59;;;;;;;6.33;1.90;;;4.20;99.90;;;;;;4421945;28;655584;-72
2023/02/27 13:57:47;;;;;;;4.90;2.13;;;4.90;99.90;;;;;;4371509;28;656324;-71
2023/02/27 14:00:36;;;;;;;7.90;1.87;;;5.50;99.90;;;;;;4410061;28;656005;-73
2023/02/27 14:03:24;;;;;;;4.97;2.40;;;5.30;99.90;;;;;;4401790;28;655907;-71
2023/02/27 14:06:12;;;;;;;4.43;1.97;;;6.40;99.90;;;;;;4398176;28;655711;-71
2023/02/27 14:08:59;;;;;;;4.38;2.40;;;7.30;99.90;;;;;;4413949;28;655675;-71
2023/02/27 14:11:53;;;;;;;6.47;2.50;;;7.00;99.90;;;;;;4391848;28;655337;-72
2023/02/27 14:14:44;;;;;;;4.13;1.77;;;7.00;99.90;;;;;;4406326;28;655407;-69
2023/02/27 14:17:43;;;;;;;3.63;1.43;;;6.50;99.90;;;;;;4396726;28;655487;-71
2023/02/27 14:20:49;;;;;;;4.53;1.87;;;6.00;99.90;;;;;;4370307;28;655977;-73
2023/02/27 14:23:37;;;;;;;6.10;2.00;;;6.00;99.90;;;;;;4394252;28;655567;-70
2023/02/27 14:26:25;;;;;;;3.27;1.50;;;5.80;99.90;;;;;;4412199;28;655594;-74
2023/02/27 14:29:16;;;;;;;3.63;1.77;;;5.20;99.90;;;;;;4397086;28;656357;-75
2023/02/27 14:32:05;;;;;;;2.67;1.50;;;5.00;99.90;;;;;;4396885;28;656711;-74
2023/02/27 14:34:54;;;;;;;6.50;2.13;;;5.20;99.90;;;;;;4390475;28;656241;-73
2023/02/27 14:37:41;;;;;;;4.53;1.93;;;5.40;99.90;;;;;;4399035;28;655508;-72
2023/02/27 14:40:31;;;;;;;4.00;1.77;;;5.30;99.90;;;;;;4408945;28;656899;-73